Time;durP1;ratioP1;P1;durP2;ratioP2;P2;SDS_P1;SDS_P2;PMS_P1;PMS_P2;Temp;Humidity;BMP_temperature;BMP_pressure;BME280_temperature;BME280_humidity;BME280_pressure;Samples;Min_cycle;Max_cycle;Signal;HPM_P1;HPM_P2
2023/05/19 00:01:36;;;;;;;5.67;2.67;;;9.50;1.00;;;;;;5094467;28;20177;-78
2023/05/19 00:04:04;;;;;;;5.97;2.07;;;9.50;1.00;;;;;;5094415;28;20182;-78
2023/05/19 00:06:31;;;;;;;7.57;2.20;;;9.40;1.00;;;;;;5095257;28;20166;-79
2023/05/19 00:09:08;;;;;;;6.60;3.10;;;9.50;1.00;;;;;;5094645;28;20170;-78
2023/05/19 00:11:35;;;;;;;8.17;2.87;;;9.40;1.00;;;;;;5095244;28;20151;-78
2023/05/19 00:14:02;;;;;;;4.83;2.80;;;9.30;1.00;;;;;;5093253;28;20190;-78
2023/05/19 00:16:29;;;;;;;6.17;2.53;;;9.30;1.00;;;;;;5094580;28;20167;-78
2023/05/19 00:18:58;;;;;;;7.23;2.70;;;9.30;1.00;;;;;;5094681;28;20173;-78
2023/05/19 00:21:24;;;;;;;6.10;3.10;;;9.20;1.00;;;;;;5094748;28;20538;-78
2023/05/19 00:23:50;;;;;;;8.40;3.03;;;9.20;1.00;;;;;;5094885;28;20170;-78
2023/05/19 00:26:15;;;;;;;9.20;3.03;;;9.20;1.00;;;;;;5094595;28;20287;-78
2023/05/19 00:28:41;;;;;;;5.63;2.60;;;9.10;1.00;;;;;;5094430;28;20189;-79
2023/05/19 00:31:07;;;;;;;5.33;2.57;;;9.10;1.00;;;;;;5093305;28;20280;-78
2023/05/19 00:33:32;;;;;;;6.23;2.50;;;9.10;1.00;;;;;;5108706;28;20652;-79
2023/05/19 00:36:01;;;;;;;7.47;2.77;;;9.10;1.00;;;;;;5113421;28;20717;-78
2023/05/19 00:38:27;;;;;;;8.20;2.60;;;9.00;22.00;;;;;;5113174;28;20195;-77
2023/05/19 00:40:53;;;;;;;5.20;2.63;;;8.90;26.30;;;;;;5114378;28;20263;-78
2023/05/19 00:43:18;;;;;;;5.97;2.90;;;8.90;28.30;;;;;;5114113;28;20260;-78
2023/05/19 00:45:45;;;;;;;5.80;2.87;;;8.90;37.00;;;;;;5113694;28;20569;-78
2023/05/19 00:48:11;;;;;;;6.23;2.97;;;8.90;42.90;;;;;;5114897;28;20167;-78
2023/05/19 00:50:37;;;;;;;5.97;2.60;;;8.80;38.10;;;;;;5115205;28;20174;-78
2023/05/19 00:53:02;;;;;;;10.00;2.73;;;8.70;57.20;;;;;;5114839;28;20238;-78
2023/05/19 00:55:30;;;;;;;6.30;2.70;;;8.70;58.40;;;;;;5114368;28;20198;-78
2023/05/19 00:57:56;;;;;;;5.20;2.50;;;8.70;59.40;;;;;;5114598;28;20195;-78
2023/05/19 01:00:22;;;;;;;9.77;3.07;;;8.60;85.30;;;;;;5114881;28;20173;-78
2023/05/19 01:02:49;;;;;;;5.10;3.30;;;8.60;61.80;;;;;;5114845;28;20685;-77
2023/05/19 01:05:15;;;;;;;6.07;2.67;;;8.60;73.40;;;;;;5113429;28;20193;-78
2023/05/19 01:07:41;;;;;;;6.17;2.77;;;8.50;92.40;;;;;;5113105;28;20247;-78
2023/05/19 01:10:07;;;;;;;8.23;3.13;;;8.50;98.00;;;;;;5114551;28;20315;-77
2023/05/19 01:12:34;;;;;;;5.53;2.80;;;8.50;99.30;;;;;;5114415;28;20177;-78
2023/05/19 01:15:01;;;;;;;4.23;2.73;;;8.50;94.20;;;;;;5113664;28;20196;-78
2023/05/19 01:17:53;;;;;;;6.10;2.90;;;8.40;99.90;;;;;;5114359;28;20258;-78
2023/05/19 01:20:51;;;;;;;6.10;3.43;;;8.40;99.90;;;;;;5116749;28;20207;-78
2023/05/19 01:23:30;;;;;;;6.37;2.83;;;8.30;99.90;;;;;;5109852;28;20280;-78
2023/05/19 01:26:18;;;;;;;4.33;2.70;;;8.30;99.90;;;;;;5117072;28;20682;-78
2023/05/19 01:29:15;;;;;;;10.23;4.00;;;8.30;99.90;;;;;;5118640;28;20158;-78
2023/05/19 01:31:43;;;;;;;6.50;3.27;;;8.30;99.90;;;;;;5119222;28;20201;-79
2023/05/19 01:34:10;;;;;;;5.80;2.93;;;8.20;99.90;;;;;;5118181;28;20544;-78
2023/05/19 01:36:37;;;;;;;7.90;3.33;;;8.20;99.90;;;;;;5118950;28;20674;-78
2023/05/19 01:39:03;;;;;;;5.63;2.83;;;8.20;99.90;;;;;;5118290;28;20252;-78
2023/05/19 01:41:31;;;;;;;5.53;3.17;;;8.10;99.90;;;;;;5117875;28;20204;-78
2023/05/19 01:43:57;;;;;;;5.37;3.23;;;8.10;99.90;;;;;;5116761;28;20262;-78
2023/05/19 01:46:24;;;;;;;6.13;3.20;;;8.10;99.90;;;;;;5118101;28;20190;-78
2023/05/19 01:48:50;;;;;;;12.57;3.47;;;8.00;99.90;;;;;;5118188;28;20177;-78
2023/05/19 01:51:15;;;;;;;5.93;3.33;;;8.00;99.90;;;;;;5118305;28;20642;-78
2023/05/19 01:53:41;;;;;;;6.43;3.63;;;8.00;99.90;;;;;;5118685;28;20169;-78
2023/05/19 01:56:07;;;;;;;7.83;3.40;;;8.00;99.90;;;;;;5118031;28;20295;-79
2023/05/19 01:58:50;;;;;;;8.40;3.40;;;7.90;99.90;;;;;;5121824;28;20165;-77
2023/05/19 02:01:31;;;;;;;5.13;3.57;;;7.90;99.90;;;;;;5120734;28;20170;-78
2023/05/19 02:04:15;;;;;;;7.63;3.40;;;7.80;99.90;;;;;;5118444;28;20231;-78
2023/05/19 02:07:04;;;;;;;5.27;3.03;;;7.80;99.90;;;;;;5116556;28;20165;-78
2023/05/19 02:10:03;;;;;;;5.20;3.20;;;7.80;99.90;;;;;;5118151;28;20238;-78
2023/05/19 02:12:36;;;;;;;6.87;3.47;;;7.80;99.90;;;;;;5117766;28;20219;-78
2023/05/19 02:15:27;;;;;;;8.00;3.10;;;7.70;99.90;;;;;;5116498;28;20250;-78
2023/05/19 02:17:54;;;;;;;5.57;3.10;;;7.70;99.90;;;;;;5118010;28;20228;-78
2023/05/19 02:20:21;;;;;;;3.97;3.23;;;7.70;99.90;;;;;;5118671;27;20670;-78
2023/05/19 02:22:47;;;;;;;8.13;3.43;;;7.70;99.90;;;;;;5116706;28;20677;-77
2023/05/19 02:25:13;;;;;;;4.93;3.30;;;7.70;99.90;;;;;;5114685;28;20255;-77
2023/05/19 02:27:38;;;;;;;7.20;3.17;;;7.70;99.90;;;;;;5115806;28;20174;-77
2023/05/19 02:30:05;;;;;;;6.60;3.00;;;7.70;99.90;;;;;;5116020;28;20226;-77
2023/05/19 02:32:31;;;;;;;6.77;3.10;;;7.60;99.90;;;;;;5113386;28;20188;-77
2023/05/19 02:34:57;;;;;;;7.40;4.03;;;7.60;99.90;;;;;;5115468;28;20201;-77
2023/05/19 02:37:24;;;;;;;6.57;3.83;;;7.60;99.90;;;;;;5114298;28;20181;-76
2023/05/19 02:39:50;;;;;;;7.10;3.40;;;7.50;99.90;;;;;;5115931;28;20222;-77
2023/05/19 02:42:17;;;;;;;6.87;2.87;;;7.50;99.90;;;;;;5115788;28;20173;-77
2023/05/19 02:44:42;;;;;;;6.87;3.37;;;7.50;99.90;;;;;;5114228;28;20193;-77
2023/05/19 02:47:08;;;;;;;7.20;3.70;;;7.50;99.90;;;;;;5115535;28;20670;-76
2023/05/19 02:49:34;;;;;;;6.83;4.00;;;7.40;99.90;;;;;;5115603;28;20211;-77
2023/05/19 02:52:04;;;;;;;5.63;3.47;;;7.40;99.90;;;;;;5114022;28;20185;-77
2023/05/19 02:54:30;;;;;;;6.30;3.77;;;7.20;99.90;;;;;;5115070;28;20686;-77
2023/05/19 02:56:56;;;;;;;9.03;3.43;;;7.30;99.90;;;;;;5114512;28;20248;-77
2023/05/19 02:59:22;;;;;;;6.37;3.57;;;7.30;99.90;;;;;;5116475;28;20629;-77
2023/05/19 03:01:47;;;;;;;9.23;4.17;;;7.30;99.90;;;;;;5116015;28;20169;-77
2023/05/19 03:04:13;;;;;;;12.10;4.70;;;7.30;99.90;;;;;;5115095;28;20172;-78
2023/05/19 03:06:39;;;;;;;5.43;3.53;;;7.20;99.90;;;;;;5116249;28;20588;-77
2023/05/19 03:09:04;;;;;;;5.77;3.30;;;7.30;99.90;;;;;;5117712;28;20226;-77
2023/05/19 03:11:30;;;;;;;7.03;4.33;;;7.30;99.90;;;;;;5117401;28;20170;-78
2023/05/19 03:13:56;;;;;;;7.70;4.07;;;7.30;99.90;;;;;;5116311;28;20177;-78
2023/05/19 03:16:21;;;;;;;8.40;4.03;;;7.30;99.90;;;;;;5116820;28;20205;-77
2023/05/19 03:18:47;;;;;;;7.47;3.90;;;7.30;99.90;;;;;;5116224;28;20174;-77
2023/05/19 03:21:12;;;;;;;8.87;4.47;;;7.30;99.90;;;;;;5115020;28;20177;-77
2023/05/19 03:23:38;;;;;;;6.67;4.10;;;7.30;99.90;;;;;;5115966;28;20182;-80
2023/05/19 03:26:03;;;;;;;6.43;3.70;;;7.30;99.90;;;;;;5115859;28;20612;-77
2023/05/19 03:28:29;;;;;;;7.93;4.13;;;7.30;99.90;;;;;;5114736;28;20178;-77
2023/05/19 03:30:55;;;;;;;7.00;4.20;;;7.30;99.90;;;;;;5115998;28;20182;-77
2023/05/19 03:33:21;;;;;;;9.13;4.63;;;7.20;99.90;;;;;;5116294;28;20173;-77
2023/05/19 03:35:46;;;;;;;9.00;3.97;;;7.20;99.90;;;;;;5115888;28;20205;-78
2023/05/19 03:38:12;;;;;;;7.33;3.57;;;7.20;99.90;;;;;;5116289;28;20222;-77
2023/05/19 03:40:37;;;;;;;5.97;4.10;;;7.20;99.90;;;;;;5115987;28;20174;-77
2023/05/19 03:43:03;;;;;;;8.60;4.47;;;7.20;99.90;;;;;;5115806;28;20190;-77
2023/05/19 03:45:28;;;;;;;9.00;5.13;;;7.20;99.90;;;;;;5116068;28;20791;-77
2023/05/19 03:47:54;;;;;;;9.73;4.90;;;7.20;99.90;;;;;;5118827;28;20253;-77
2023/05/19 03:50:20;;;;;;;8.17;4.33;;;7.20;99.90;;;;;;5119687;28;20688;-77
2023/05/19 03:52:46;;;;;;;7.40;4.67;;;7.10;99.90;;;;;;5116565;28;20195;-76
2023/05/19 03:55:13;;;;;;;7.97;4.33;;;7.10;99.90;;;;;;5115062;28;20729;-79
2023/05/19 03:57:40;;;;;;;9.27;4.97;;;7.10;99.90;;;;;;5115141;28;20220;-78
2023/05/19 04:00:06;;;;;;;12.60;4.77;;;7.10;99.90;;;;;;5116350;28;20169;-77
2023/05/19 04:02:32;;;;;;;8.93;4.67;;;7.10;99.90;;;;;;5114536;28;20184;-77
2023/05/19 04:04:57;;;;;;;11.10;5.07;;;7.10;99.90;;;;;;5114044;28;20281;-77
2023/05/19 04:07:23;;;;;;;6.20;4.10;;;7.20;99.90;;;;;;5113919;28;20173;-77
2023/05/19 04:09:49;;;;;;;8.63;4.73;;;7.10;99.90;;;;;;5115902;28;20181;-77
2023/05/19 04:12:15;;;;;;;8.53;4.93;;;7.20;99.90;;;;;;5116208;28;20169;-77
2023/05/19 04:14:40;;;;;;;10.67;4.87;;;7.20;99.90;;;;;;5117142;28;20216;-77
2023/05/19 04:17:07;;;;;;;8.10;4.93;;;7.10;99.90;;;;;;5118595;28;20341;-77
2023/05/19 04:19:32;;;;;;;10.17;5.23;;;7.20;99.90;;;;;;5117274;28;20166;-77
2023/05/19 04:21:58;;;;;;;7.67;4.70;;;7.20;99.90;;;;;;5113414;28;20196;-77
2023/05/19 04:24:23;;;;;;;10.80;4.50;;;7.20;99.90;;;;;;5114816;28;20678;-78
2023/05/19 04:26:49;;;;;;;7.03;4.70;;;7.20;99.90;;;;;;5114927;28;20170;-78
2023/05/19 04:29:16;;;;;;;9.20;5.00;;;7.30;99.90;;;;;;5115367;28;20219;-77
2023/05/19 04:31:45;;;;;;;9.90;5.90;;;7.30;99.90;;;;;;5114668;28;20252;-77
2023/05/19 04:34:10;;;;;;;13.20;4.57;;;7.30;99.90;;;;;;5114143;28;20536;-78
2023/05/19 04:36:36;;;;;;;12.97;5.00;;;7.30;99.90;;;;;;5114913;28;20219;-77
2023/05/19 04:39:05;;;;;;;10.90;5.10;;;7.40;99.90;;;;;;5114519;28;20268;-77
2023/05/19 04:41:32;;;;;;;10.80;5.33;;;7.40;99.90;;;;;;5114553;28;20244;-76
2023/05/19 04:43:58;;;;;;;13.37;4.73;;;7.50;99.90;;;;;;5114908;28;20186;-77
2023/05/19 04:46:24;;;;;;;10.03;4.83;;;7.50;99.90;;;;;;5115317;28;20193;-78
2023/05/19 04:48:50;;;;;;;8.37;5.40;;;7.50;99.90;;;;;;5115558;28;20299;-78
2023/05/19 04:51:16;;;;;;;11.10;4.93;;;7.50;99.90;;;;;;5115143;28;20698;-77
2023/05/19 04:53:42;;;;;;;8.77;5.47;;;7.50;99.90;;;;;;5113577;28;20216;-77
2023/05/19 04:56:08;;;;;;;8.17;5.10;;;7.50;99.90;;;;;;5116624;28;20708;-76
2023/05/19 04:58:34;;;;;;;11.63;5.30;;;7.60;99.90;;;;;;5118678;28;20161;-77
2023/05/19 05:01:00;;;;;;;8.17;4.83;;;7.70;99.90;;;;;;5118455;28;20177;-77
2023/05/19 05:03:25;;;;;;;12.23;5.70;;;7.70;99.90;;;;;;5117232;28;20173;-77
2023/05/19 05:05:51;;;;;;;7.23;5.33;;;7.70;99.90;;;;;;5118564;28;20252;-77
2023/05/19 05:08:21;;;;;;;6.10;4.77;;;7.80;99.90;;;;;;5116967;28;20267;-76
2023/05/19 05:10:51;;;;;;;9.00;5.70;;;7.80;99.90;;;;;;5117394;28;20659;-77
2023/05/19 05:13:22;;;;;;;15.30;5.23;;;7.90;99.90;;;;;;5118882;28;20184;-77
2023/05/19 05:15:48;;;;;;;14.90;5.70;;;7.90;99.90;;;;;;5117382;28;20288;-77
2023/05/19 05:18:14;;;;;;;11.90;5.80;;;8.00;99.90;;;;;;5118853;28;20193;-77
2023/05/19 05:20:42;;;;;;;8.60;5.00;;;8.00;99.90;;;;;;5118302;28;20651;-77
2023/05/19 05:23:09;;;;;;;11.40;5.43;;;8.10;99.90;;;;;;5118443;28;20173;-77
2023/05/19 05:25:35;;;;;;;8.97;5.57;;;8.10;99.90;;;;;;5118863;28;20189;-76
2023/05/19 05:28:04;;;;;;;5.97;4.93;;;8.20;99.90;;;;;;5116990;28;20173;-77
2023/05/19 05:30:30;;;;;;;10.13;5.07;;;8.30;99.90;;;;;;5119449;28;20200;-77
2023/05/19 05:32:56;;;;;;;7.20;4.77;;;8.40;99.90;;;;;;5118497;28;20557;-77
2023/05/19 05:35:23;;;;;;;10.20;4.97;;;8.40;99.90;;;;;;5118944;28;20194;-78
2023/05/19 05:37:48;;;;;;;9.87;5.60;;;8.50;99.90;;;;;;5118208;28;20166;-77
2023/05/19 05:40:14;;;;;;;10.87;4.80;;;8.60;99.90;;;;;;5118365;28;20177;-78
2023/05/19 05:42:40;;;;;;;10.00;4.90;;;8.70;99.90;;;;;;5118718;28;20572;-77
2023/05/19 05:45:06;;;;;;;10.07;5.70;;;8.70;99.90;;;;;;5118621;28;20543;-78
2023/05/19 05:47:32;;;;;;;9.73;4.67;;;8.80;99.90;;;;;;5120180;28;20185;-78
2023/05/19 05:49:58;;;;;;;8.13;4.17;;;8.90;99.90;;;;;;5119997;28;20178;-78
2023/05/19 05:52:29;;;;;;;7.53;4.23;;;9.00;99.90;;;;;;5119995;28;20196;-78
2023/05/19 05:54:55;;;;;;;9.47;4.23;;;9.00;99.90;;;;;;5122062;28;20705;-78
2023/05/19 05:57:20;;;;;;;9.53;4.20;;;9.10;51.00;;;;;;5121770;27;20189;-78
2023/05/19 05:59:46;;;;;;;7.67;3.70;;;9.20;41.10;;;;;;5122866;28;20235;-79
2023/05/19 06:02:12;;;;;;;13.83;4.23;;;9.30;27.00;;;;;;5120827;27;20180;-78
2023/05/19 06:04:38;;;;;;;8.13;3.57;;;9.40;8.80;;;;;;5121503;28;20269;-78
2023/05/19 06:07:03;;;;;;;11.80;3.57;;;9.40;1.00;;;;;;5121551;28;20178;-78
2023/05/19 06:09:29;;;;;;;9.33;3.57;;;9.50;1.00;;;;;;5121030;28;20554;-78
2023/05/19 06:11:58;;;;;;;7.23;3.67;;;9.60;1.00;;;;;;5121157;28;20173;-78
2023/05/19 06:14:23;;;;;;;8.43;3.53;;;9.60;1.00;;;;;;5120920;28;20193;-77
2023/05/19 06:16:49;;;;;;;12.03;3.63;;;9.70;1.00;;;;;;5118532;28;20322;-80
2023/05/19 06:19:14;;;;;;;11.03;3.87;;;9.80;1.00;;;;;;5117514;28;20310;-78
2023/05/19 06:21:41;;;;;;;8.93;3.57;;;9.90;1.00;;;;;;5120407;28;20162;-80
2023/05/19 06:24:07;;;;;;;9.33;3.20;;;10.00;1.00;;;;;;5102185;28;20186;-80
2023/05/19 06:26:32;;;;;;;8.67;4.00;;;9.90;1.00;;;;;;5101132;28;20557;-80
2023/05/19 06:28:58;;;;;;;7.70;3.50;;;10.10;1.00;;;;;;5106620;28;20530;-79
2023/05/19 06:31:25;;;;;;;6.43;3.00;;;10.20;1.00;;;;;;5126328;28;20627;-79
2023/05/19 06:33:51;;;;;;;5.70;2.97;;;10.30;1.00;;;;;;5134300;28;20165;-81
2023/05/19 06:36:16;;;;;;;12.77;5.10;;;10.30;1.00;;;;;;5123449;28;20610;-81
2023/05/19 06:38:42;;;;;;;6.03;3.17;;;10.40;1.00;;;;;;5117554;28;20181;-81
2023/05/19 06:41:07;;;;;;;9.00;3.03;;;10.50;1.00;;;;;;5120007;28;20177;-81
2023/05/19 06:43:33;;;;;;;10.00;3.20;;;10.60;1.00;;;;;;5120016;28;20184;-81
2023/05/19 06:45:58;;;;;;;6.07;3.00;;;10.70;1.00;;;;;;5117980;28;20265;-81
2023/05/19 06:48:24;;;;;;;9.47;3.33;;;10.80;1.00;;;;;;5115447;28;20181;-81
2023/05/19 06:50:50;;;;;;;7.07;2.97;;;11.00;1.00;;;;;;5097134;28;20179;-80
2023/05/19 06:53:17;;;;;;;8.73;2.93;;;11.10;1.00;;;;;;5099123;28;20177;-81
2023/05/19 06:55:43;;;;;;;10.67;2.50;;;11.20;1.00;;;;;;5097667;28;20206;-81
2023/05/19 06:58:08;;;;;;;5.17;2.70;;;11.20;1.00;;;;;;5097421;28;20177;-81
2023/05/19 07:00:34;;;;;;;5.50;2.43;;;11.40;1.00;;;;;;5097466;28;20265;-82
2023/05/19 07:02:59;;;;;;;7.57;2.73;;;11.50;99.90;;;;;;5097343;28;20185;-82
2023/05/19 07:05:25;;;;;;;5.63;2.93;;;11.50;99.90;;;;;;5096973;28;20289;-81
2023/05/19 07:07:51;;;;;;;4.27;2.50;;;11.60;99.90;;;;;;5097265;28;20734;-80
2023/05/19 07:10:16;;;;;;;6.77;2.33;;;11.70;99.90;;;;;;5097872;28;20192;-81
2023/05/19 07:12:42;;;;;;;6.77;2.40;;;11.90;99.90;;;;;;5098005;28;20177;-80
2023/05/19 07:15:08;;;;;;;5.97;2.37;;;11.90;99.90;;;;;;5100168;28;20198;-81
2023/05/19 07:17:33;;;;;;;5.10;2.10;;;12.00;99.90;;;;;;5099557;28;20167;-81
2023/05/19 07:20:00;;;;;;;5.67;2.20;;;12.10;99.90;;;;;;5098647;28;20188;-81
2023/05/19 07:22:25;;;;;;;6.20;2.43;;;12.20;99.90;;;;;;5098785;28;20178;-81
2023/05/19 07:24:51;;;;;;;7.70;2.80;;;12.20;99.90;;;;;;5097927;28;20296;-81
2023/05/19 07:27:17;;;;;;;11.23;2.67;;;12.20;99.90;;;;;;5098459;28;20177;-81
2023/05/19 07:29:42;;;;;;;5.07;2.40;;;12.30;99.90;;;;;;5098171;28;20198;-81
2023/05/19 07:32:08;;;;;;;6.63;2.00;;;12.40;99.90;;;;;;5095931;28;20181;-79
2023/05/19 07:34:33;;;;;;;6.90;2.50;;;12.50;99.90;;;;;;5096362;28;20205;-79
2023/05/19 07:36:59;;;;;;;3.77;2.17;;;12.60;99.90;;;;;;5095983;28;20166;-81
2023/05/19 07:39:28;;;;;;;9.23;2.87;;;12.60;99.90;;;;;;5095890;28;20170;-81
2023/05/19 07:41:54;;;;;;;9.37;2.63;;;12.80;99.90;;;;;;5097123;28;20169;-80
2023/05/19 07:44:20;;;;;;;7.70;2.47;;;12.90;99.90;;;;;;5097836;28;20234;-81
2023/05/19 07:46:46;;;;;;;10.50;2.10;;;12.90;99.90;;;;;;5097833;28;20181;-81
2023/05/19 07:49:11;;;;;;;7.17;1.83;;;13.00;99.90;;;;;;5096187;28;20178;-81
2023/05/19 07:51:37;;;;;;;5.80;2.40;;;13.10;99.90;;;;;;5095823;28;20181;-81
2023/05/19 07:54:03;;;;;;;8.37;2.20;;;13.20;96.90;;;;;;5100424;28;20517;-80
2023/05/19 07:56:28;;;;;;;7.33;1.90;;;13.40;22.30;;;;;;5098316;28;20212;-80
2023/05/19 07:58:54;;;;;;;2.60;1.50;;;13.50;1.00;;;;;;5096635;28;20208;-79
2023/05/19 08:01:20;;;;;;;6.93;1.93;;;13.50;36.70;;;;;;5097467;28;20542;-79
2023/05/19 08:03:45;;;;;;;6.20;1.80;;;13.60;43.00;;;;;;5098342;28;20174;-80
2023/05/19 08:06:11;;;;;;;9.53;2.13;;;13.60;11.40;;;;;;5097826;28;20201;-79
2023/05/19 08:08:36;;;;;;;6.00;1.97;;;13.70;67.80;;;;;;5095961;28;20207;-80
2023/05/19 08:11:03;;;;;;;5.13;1.80;;;13.70;1.00;;;;;;5098674;28;20643;-80
2023/05/19 08:13:29;;;;;;;6.47;2.53;;;13.80;35.70;;;;;;5098504;28;20558;-78
2023/05/19 08:15:58;;;;;;;4.13;1.67;;;13.80;71.90;;;;;;5096361;28;20213;-80
2023/05/19 08:18:24;;;;;;;5.67;1.90;;;13.90;52.60;;;;;;5096767;28;20232;-80
2023/05/19 08:20:50;;;;;;;4.03;1.60;;;13.90;2.90;;;;;;5095149;28;20174;-80
2023/05/19 08:23:16;;;;;;;3.47;1.03;;;14.00;1.00;;;;;;5095642;28;20560;-80
2023/05/19 08:25:42;;;;;;;4.87;1.30;;;14.00;1.00;;;;;;5096839;28;20191;-81
2023/05/19 08:28:07;;;;;;;5.83;1.63;;;14.20;1.00;;;;;;5096204;28;20520;-79
2023/05/19 08:30:33;;;;;;;7.70;1.87;;;14.40;1.00;;;;;;5095951;28;20170;-80
2023/05/19 08:32:58;;;;;;;4.70;1.70;;;14.50;1.00;;;;;;5095182;28;20185;-80
2023/05/19 08:35:24;;;;;;;5.97;1.70;;;14.60;1.00;;;;;;5094551;28;20209;-79
2023/05/19 08:37:50;;;;;;;4.83;1.80;;;14.60;1.00;;;;;;5096484;28;20193;-80
2023/05/19 08:40:17;;;;;;;7.03;1.60;;;14.70;1.00;;;;;;5096498;28;20198;-81
2023/05/19 08:42:46;;;;;;;7.70;1.40;;;14.80;1.00;;;;;;5096146;28;20193;-80
2023/05/19 08:45:12;;;;;;;4.30;1.50;;;14.90;1.00;;;;;;5096311;28;20190;-80
2023/05/19 08:47:44;;;;;;;4.73;1.40;;;15.00;1.00;;;;;;5097065;28;20223;-80
2023/05/19 08:50:12;;;;;;;3.83;1.37;;;15.00;1.00;;;;;;5096248;28;20204;-80
2023/05/19 08:52:45;;;;;;;5.43;1.47;;;15.10;1.00;;;;;;5097990;28;20170;-81
2023/05/19 08:55:32;;;;;;;5.23;1.40;;;15.20;1.00;;;;;;5096136;28;20622;-80
2023/05/19 08:58:00;;;;;;;6.30;1.70;;;15.40;99.90;;;;;;5096744;28;20142;-81
2023/05/19 09:00:26;;;;;;;4.00;1.40;;;15.40;99.90;;;;;;5097574;28;20544;-80
2023/05/19 09:02:52;;;;;;;4.63;1.43;;;15.50;99.90;;;;;;5097262;28;20178;-81
2023/05/19 09:05:18;;;;;;;5.87;1.50;;;15.50;99.90;;;;;;5096327;28;20198;-82
2023/05/19 09:07:44;;;;;;;5.67;1.40;;;15.50;99.90;;;;;;5101996;28;20265;-81
2023/05/19 09:10:13;;;;;;;4.13;1.40;;;15.60;99.90;;;;;;5097580;28;20642;-81
2023/05/19 09:12:40;;;;;;;5.93;1.73;;;15.70;1.00;;;;;;5105422;28;20235;-81
2023/05/19 09:15:08;;;;;;;4.40;1.10;;;15.70;99.90;;;;;;5105476;28;20209;-82
2023/05/19 09:17:35;;;;;;;4.23;1.30;;;15.80;99.90;;;;;;5096683;28;20255;-81
2023/05/19 09:20:03;;;;;;;5.33;1.53;;;15.80;99.90;;;;;;5095442;28;20170;-80
2023/05/19 09:22:29;;;;;;;4.27;1.30;;;15.80;22.80;;;;;;5096601;28;20228;-81
2023/05/19 09:24:55;;;;;;;4.43;1.50;;;15.90;99.90;;;;;;5096219;28;20201;-80
2023/05/19 09:27:24;;;;;;;8.67;1.77;;;15.90;99.90;;;;;;5095841;28;20185;-80
2023/05/19 09:29:50;;;;;;;7.43;2.10;;;15.90;99.90;;;;;;5095311;28;20260;-81
2023/05/19 09:32:25;;;;;;;6.23;1.37;;;16.00;99.90;;;;;;5095263;28;20183;-80
2023/05/19 09:34:52;;;;;;;7.03;2.13;;;16.10;1.00;;;;;;5095639;28;20300;-80
2023/05/19 09:37:23;;;;;;;6.63;1.47;;;16.20;99.90;;;;;;5097225;28;20265;-80
2023/05/19 09:39:51;;;;;;;5.43;1.40;;;16.30;99.90;;;;;;5097915;28;20154;-80
2023/05/19 09:42:25;;;;;;;7.07;1.60;;;16.30;99.90;;;;;;5106687;28;20186;-81
2023/05/19 09:44:59;;;;;;;5.40;1.53;;;16.30;99.90;;;;;;5121701;28;20571;-81
2023/05/19 09:47:26;;;;;;;5.10;1.60;;;16.40;99.90;;;;;;5104458;28;20209;-80
2023/05/19 09:49:52;;;;;;;7.00;2.10;;;16.40;99.90;;;;;;5102005;28;20178;-81
2023/05/19 09:52:19;;;;;;;5.37;1.47;;;16.50;1.00;;;;;;5105069;28;20184;-80
2023/05/19 09:54:45;;;;;;;4.00;1.53;;;16.50;99.90;;;;;;5099375;28;20198;-81
2023/05/19 09:57:11;;;;;;;4.70;1.47;;;16.50;84.90;;;;;;5102692;28;20167;-81
2023/05/19 09:59:37;;;;;;;5.03;1.33;;;16.60;99.90;;;;;;5101735;28;20181;-81
2023/05/19 10:02:04;;;;;;;7.73;1.43;;;16.70;1.00;;;;;;5102682;28;20674;-81
2023/05/19 10:04:30;;;;;;;6.63;1.67;;;16.70;99.90;;;;;;5108775;28;20189;-81
2023/05/19 10:06:58;;;;;;;8.23;1.80;;;16.80;99.90;;;;;;5122168;28;20743;-81
2023/05/19 10:09:29;;;;;;;4.97;1.30;;;16.90;1.00;;;;;;5120930;28;20170;-81
2023/05/19 10:11:56;;;;;;;4.67;1.60;;;17.00;1.00;;;;;;5121247;28;20170;-82
2023/05/19 10:14:23;;;;;;;3.63;1.50;;;17.00;1.00;;;;;;5117110;28;20197;-81
2023/05/19 10:16:53;;;;;;;4.67;1.50;;;17.10;96.60;;;;;;5131963;28;20165;-80
2023/05/19 10:19:25;;;;;;;5.47;1.67;;;17.20;1.00;;;;;;5131738;28;20188;-81
2023/05/19 10:21:51;;;;;;;5.47;2.17;;;17.10;99.90;;;;;;5133278;28;20196;-82
2023/05/19 10:24:17;;;;;;;6.00;1.37;;;17.20;99.90;;;;;;5131951;28;20243;-81
2023/05/19 10:27:07;;;;;;;8.77;1.43;;;17.30;3.00;;;;;;5122993;28;20618;-82
2023/05/19 10:29:36;;;;;;;4.47;1.60;;;17.40;99.90;;;;;;5123828;28;20154;-81
2023/05/19 10:32:09;;;;;;;3.93;1.30;;;17.40;1.00;;;;;;5120225;28;20185;-81
2023/05/19 10:35:06;;;;;;;6.80;1.73;;;17.40;99.90;;;;;;5117318;28;20607;-82
2023/05/19 10:37:40;;;;;;;4.63;1.70;;;17.40;1.00;;;;;;5117877;28;20161;-81
2023/05/19 10:40:14;;;;;;;4.87;1.83;;;17.50;42.20;;;;;;5117848;28;20229;-81
2023/05/19 10:43:17;;;;;;;9.07;1.50;;;17.50;99.90;;;;;;5117987;28;20257;-83
2023/05/19 10:45:52;;;;;;;9.03;1.67;;;17.50;1.00;;;;;;5117663;28;20189;-81
2023/05/19 10:48:21;;;;;;;3.40;1.33;;;17.50;1.00;;;;;;5116904;28;20193;-82
2023/05/19 10:50:48;;;;;;;3.67;1.80;;;17.50;99.90;;;;;;5116465;28;20169;-81
2023/05/19 10:53:19;;;;;;;3.93;1.43;;;17.50;1.00;;;;;;5101202;28;20189;-80
2023/05/19 10:55:50;;;;;;;3.43;1.13;;;17.50;99.90;;;;;;5114511;28;20200;-82
2023/05/19 10:58:53;;;;;;;7.60;1.60;;;17.50;1.00;;;;;;5118628;27;20146;-82
2023/05/19 11:01:23;;;;;;;8.40;1.60;;;17.50;1.00;;;;;;5112532;28;20182;-80
2023/05/19 11:03:56;;;;;;;4.23;1.37;;;17.60;1.00;;;;;;5125748;28;20166;-81
2023/05/19 11:06:30;;;;;;;2.23;1.23;;;17.50;99.90;;;;;;5115929;28;20865;-81
2023/05/19 11:09:09;;;;;;;3.50;1.27;;;17.60;1.00;;;;;;5106231;28;20570;-81
2023/05/19 11:11:47;;;;;;;5.17;1.50;;;17.70;99.90;;;;;;5107945;28;20174;-80
2023/05/19 11:14:18;;;;;;;2.87;1.30;;;17.80;99.90;;;;;;5111045;28;20326;-80
2023/05/19 11:16:46;;;;;;;4.53;1.83;;;17.90;99.90;;;;;;5114109;27;20189;-80
2023/05/19 11:19:29;;;;;;;3.33;1.30;;;17.90;99.90;;;;;;5096977;28;20189;-81
2023/05/19 11:21:56;;;;;;;4.33;1.30;;;17.90;99.90;;;;;;5097644;28;20186;-81
2023/05/19 11:24:40;;;;;;;4.23;1.50;;;18.10;1.00;;;;;;5097778;28;20190;-81
2023/05/19 11:27:29;;;;;;;5.60;1.67;;;18.00;44.00;;;;;;5097906;28;20281;-83
2023/05/19 11:30:00;;;;;;;4.67;1.47;;;18.00;99.90;;;;;;5100398;28;20175;-83
2023/05/19 11:32:32;;;;;;;5.90;1.60;;;18.10;1.00;;;;;;5097429;28;20166;-80
2023/05/19 11:34:58;;;;;;;2.43;1.23;;;18.00;14.10;;;;;;5095674;28;20221;-80
2023/05/19 11:37:23;;;;;;;4.40;1.87;;;18.10;1.00;;;;;;5096210;28;20638;-83
2023/05/19 11:39:50;;;;;;;4.93;1.67;;;18.20;99.90;;;;;;5095516;28;20251;-81
2023/05/19 11:42:16;;;;;;;2.80;1.43;;;18.30;1.00;;;;;;5097564;28;20170;-83
2023/05/19 11:44:46;;;;;;;4.33;1.40;;;18.30;32.10;;;;;;5100288;28;20269;-81
2023/05/19 11:47:13;;;;;;;5.50;1.53;;;18.30;1.00;;;;;;5111557;28;20178;-81
2023/05/19 11:49:44;;;;;;;4.93;1.70;;;18.30;99.90;;;;;;5116507;27;20223;-81
2023/05/19 11:52:10;;;;;;;4.87;1.40;;;18.40;1.00;;;;;;5116155;28;20191;-81
2023/05/19 11:54:36;;;;;;;4.57;1.80;;;18.40;1.00;;;;;;5116158;28;20189;-80
2023/05/19 11:57:04;;;;;;;2.93;1.50;;;18.50;99.90;;;;;;5113689;27;20196;-81
2023/05/19 11:59:35;;;;;;;6.80;1.40;;;18.60;66.90;;;;;;5095953;28;20186;-81
2023/05/19 12:02:02;;;;;;;8.90;1.70;;;18.60;1.00;;;;;;5094513;28;20170;-79
2023/05/19 12:04:29;;;;;;;4.70;1.53;;;18.60;1.00;;;;;;5095538;28;20211;-79
2023/05/19 12:06:55;;;;;;;6.00;1.60;;;18.60;1.00;;;;;;5095262;28;20166;-79
2023/05/19 12:09:24;;;;;;;4.63;1.70;;;18.70;1.00;;;;;;5118405;28;20184;-81
2023/05/19 12:11:51;;;;;;;4.83;1.80;;;18.70;1.00;;;;;;5118038;28;20169;-80
2023/05/19 12:14:17;;;;;;;4.80;1.83;;;18.70;1.00;;;;;;5117084;28;20177;-82
2023/05/19 12:16:42;;;;;;;5.63;1.60;;;18.70;1.00;;;;;;5116930;28;20552;-80
2023/05/19 12:19:08;;;;;;;5.80;1.50;;;18.80;99.90;;;;;;5111452;28;20185;-81
2023/05/19 12:21:34;;;;;;;3.53;1.30;;;18.90;1.00;;;;;;5116706;28;20177;-81
2023/05/19 12:24:00;;;;;;;5.77;1.90;;;19.00;1.00;;;;;;5115386;28;20183;-81
2023/05/19 12:26:26;;;;;;;3.67;1.60;;;18.90;99.90;;;;;;5116373;28;20272;-80
2023/05/19 12:28:52;;;;;;;5.97;1.83;;;18.90;99.90;;;;;;5100868;28;20186;-81
2023/05/19 12:31:18;;;;;;;6.10;1.67;;;19.00;1.00;;;;;;5115599;28;20181;-81
2023/05/19 12:33:50;;;;;;;4.97;1.67;;;19.00;99.90;;;;;;5116057;28;20184;-82
2023/05/19 12:36:16;;;;;;;7.50;1.33;;;19.00;55.10;;;;;;5107203;28;20213;-79
2023/05/19 12:38:42;;;;;;;5.30;1.73;;;19.10;99.90;;;;;;5102864;28;20184;-81
2023/05/19 12:41:11;;;;;;;5.50;1.67;;;19.30;1.00;;;;;;5115452;28;20184;-80
2023/05/19 12:43:37;;;;;;;4.67;1.50;;;19.30;1.00;;;;;;5116840;28;20589;-82
2023/05/19 12:46:12;;;;;;;4.07;1.40;;;19.20;61.70;;;;;;5096586;28;20210;-81
2023/05/19 12:48:45;;;;;;;5.40;1.50;;;19.20;1.00;;;;;;5096416;28;20235;-80
2023/05/19 12:51:18;;;;;;;5.17;2.00;;;19.30;99.90;;;;;;5098447;28;20185;-82
2023/05/19 12:53:44;;;;;;;5.13;1.83;;;19.40;76.10;;;;;;5097147;28;20192;-81
2023/05/19 12:56:14;;;;;;;3.83;1.57;;;19.30;99.90;;;;;;5095801;28;20198;-82
2023/05/19 12:58:44;;;;;;;4.53;1.50;;;19.40;1.00;;;;;;5097269;28;20178;-82